South Londonderry, Vermont
Current Conditions -  °F | °C
As of 2:54 PM on Monday 22 Dec 2014 (Local Time) from KVSF Reporting Station
Overcast Overcast  
Wind Chill:   Ceiling: 1700
Heat Index:   Visibility: 10mi
Dew Point: -2°   Wind: 0mph
Humidity: 85%   Direction: NA
Pressure: 30.31"   Gusts: NA
Location:  43.15°N, 72.84°W
Report Text: KVSF 221954Z AUTO 00000KT 10SM OVC017 01/M02 A3031 RMK AO2 RAB41E42UPB42E51 SLP272 P0000 T00061017 TSNO
Loading
Personal Weather Stations






























Interactive Weather Map New forecast layout! Learn more

10-Day Weather Forecast

Advertisements
Track Severe Weather on mobile